North Stratford, NH (03590)

11:43 AM EST on March 06, 2015 (GMT -0500)
HADS N.STRATFORD GAUGE NE-POWER-CO | Change Station
CLOSE
Current Station
Personal Weather Station
Location: North Stratford, NH
Elevation: 1187 ft
Nearby Weather Stations

Elev 1187 ft 44.75 °N, 71.63 °W | Updated 1 hour ago

Clear
Clear
6 °F
Feels Like 6 °F
N
Wind Variable Wind from North
Gusts 0.0 mph

Today
High -- | Low -- °F
--% Chance of Precip.
Yesterday
High -- | Low -- °F
Precip. -- in
6:15 AM 5:40 PM
Full, 99% visible
Pressure 30.37 in
Visibility 10.0 miles
Clouds Clear
Windchill 6 °F
Dew Point Not available.
Humidity Not available.
Rainfall in
Snow Depth Not available.
UV 5 out of 12
Pollen .40 out of 12
Air Quality Not available.
Flu Activity Not available.
METAR KCDA 061635Z AUTO 10005KT 10SM CLR M10/M24 A3037 RMK AO2 T11051243

More Conditions Fewer Conditions

Pressure 30.37 in
Visibility 10.0 miles
Clouds Clear
Windchill 6 °F
Dew Point Not available.
Humidity Not available.
Rainfall in
Snow Depth Not available.
UV 5 out of 12
Pollen .40 out of 12
Air Quality Not available.
Flu Activity Not available.
METAR KCDA 061635Z AUTO 10005KT 10SM CLR M10/M24 A3037 RMK AO2 T11051243

More Conditions Fewer Conditions

10-Day Weather Forecast

Almanac

Astronomy

Mar. 06, 2015 Rise Set
Actual Time
Civil Twilight
Nautical Twilight
Astronomical Twilight
Moon
Length of Visible Light
Length of Day
Tomorrow will be .
, % of the Moon is Illuminated

Today's Extremes

State Highs State Lows

Community

WunderPhotos

Upload Photos

1,803,336 photos uploaded!

WunderBlogs® & News

Nearby

Air Quality

  Air Quality AQ Index Pollutant
Not available.

Snow Depth

Station Depth Elevation

Earthquake Activity

City Distance Mag. Time & Date
Minimum magnitude displayed is 2.5.

Coastal Water Temperatures

Place Temperature

Nearby Weather Stations